createdAt,value
2022-08-18T00:02:08.274Z,52.00
2022-08-18T00:04:49.141Z,52.90
2022-08-18T00:07:23.220Z,55.30
2022-08-18T00:09:57.235Z,56.70
2022-08-18T00:12:29.909Z,57.00
2022-08-18T00:15:04.242Z,56.60
2022-08-18T00:17:32.077Z,57.40
2022-08-18T00:20:05.199Z,56.20
2022-08-18T00:22:32.060Z,56.10
2022-08-18T00:25:05.235Z,56.80
2022-08-18T00:27:32.151Z,56.80
2022-08-18T00:30:08.222Z,55.40
2022-08-18T00:32:45.288Z,55.30
2022-08-18T00:35:18.207Z,54.20
2022-08-18T00:37:52.367Z,54.10
2022-08-18T00:40:32.376Z,54.50
2022-08-18T00:43:05.330Z,55.00
2022-08-18T00:45:43.222Z,54.40
2022-08-18T00:48:12.665Z,54.90
2022-08-18T00:50:59.706Z,55.40
2022-08-18T00:53:47.252Z,56.90
2022-08-18T00:56:32.236Z,57.20
2022-08-18T00:59:11.221Z,56.90
2022-08-18T01:01:46.239Z,56.60
2022-08-18T01:04:26.240Z,57.20
2022-08-18T01:07:05.261Z,56.00
2022-08-18T01:09:39.237Z,55.10
2022-08-18T01:12:45.858Z,54.40
2022-08-18T01:15:30.342Z,53.90
2022-08-18T01:18:25.231Z,54.50
2022-08-18T01:21:45.253Z,55.30
2022-08-18T01:24:21.838Z,55.90
2022-08-18T01:26:58.262Z,55.10
2022-08-18T01:29:31.277Z,55.00
2022-08-18T01:31:57.938Z,55.40
2022-08-18T01:34:34.257Z,55.90
2022-08-18T01:37:11.250Z,55.30
2022-08-18T01:41:27.333Z,55.00
2022-08-18T01:42:32.262Z,55.40
2022-08-18T01:44:58.980Z,56.80
2022-08-18T01:47:47.909Z,58.60
2022-08-18T01:50:17.236Z,57.30
2022-08-18T01:52:50.280Z,56.10
2022-08-18T01:55:18.098Z,55.50
2022-08-18T01:57:52.538Z,55.10
2022-08-18T02:00:19.568Z,54.80
2022-08-18T02:02:57.958Z,54.40
2022-08-18T02:05:36.407Z,54.60
2022-08-18T02:08:11.273Z,54.40
2022-08-18T02:10:39.046Z,54.30
2022-08-18T02:13:06.378Z,54.00
2022-08-18T02:15:41.922Z,54.20
2022-08-18T02:18:47.056Z,53.90
2022-08-18T02:21:19.424Z,53.80
2022-08-18T02:23:54.285Z,54.10
2022-08-18T02:26:28.286Z,53.80
2022-08-18T02:29:02.951Z,55.40
2022-08-18T02:31:29.654Z,55.60
2022-08-18T02:34:03.286Z,56.20
2022-08-18T02:36:36.287Z,56.70
2022-08-18T02:39:03.113Z,55.30
2022-08-18T02:41:43.286Z,54.50
2022-08-18T02:44:23.324Z,54.10
2022-08-18T02:47:03.346Z,53.90
2022-08-18T02:49:39.169Z,53.70
2022-08-18T02:52:12.304Z,54.60
2022-08-18T02:54:45.667Z,55.20
2022-08-18T02:57:19.397Z,55.20
2022-08-18T02:59:52.373Z,55.00
2022-08-18T03:02:32.315Z,57.50
2022-08-18T03:05:05.539Z,56.80
2022-08-18T03:07:32.214Z,56.90
2022-08-18T03:10:33.147Z,55.90
2022-08-18T03:12:59.090Z,55.20
2022-08-18T03:15:39.303Z,54.90
2022-08-18T03:18:12.505Z,55.70
2022-08-18T03:20:46.315Z,56.00
2022-08-18T03:23:27.326Z,55.90
2022-08-18T03:26:03.329Z,54.90
2022-08-18T03:28:36.313Z,54.60
2022-08-18T03:31:03.000Z,54.30
2022-08-18T03:33:36.344Z,54.10
2022-08-18T03:36:15.326Z,53.90
2022-08-18T03:38:43.243Z,55.00
2022-08-18T03:41:57.543Z,56.50
2022-08-18T03:44:11.699Z,55.70
2022-08-18T03:46:47.343Z,55.10
2022-08-18T03:49:20.400Z,56.10
2022-08-18T03:51:55.341Z,56.00
2022-08-18T03:54:29.312Z,56.80
2022-08-18T03:56:56.166Z,56.50
2022-08-18T03:59:31.336Z,55.60
2022-08-18T04:01:58.284Z,54.80
2022-08-18T04:04:34.342Z,54.60
2022-08-18T04:07:06.758Z,54.60
2022-08-18T04:09:41.368Z,54.50
2022-08-18T04:12:17.295Z,54.10
2022-08-18T04:14:54.348Z,54.60
2022-08-18T04:17:31.362Z,55.90
2022-08-18T04:19:58.145Z,55.10
2022-08-18T04:22:32.356Z,55.40
2022-08-18T04:25:01.072Z,55.80
2022-08-18T04:27:35.340Z,55.90
2022-08-18T04:30:02.407Z,56.70
2022-08-18T04:32:37.386Z,56.90
2022-08-18T04:35:14.139Z,56.70
2022-08-18T04:37:41.857Z,56.60
2022-08-18T04:40:18.336Z,55.50
2022-08-18T04:42:54.371Z,55.30
2022-08-18T04:45:21.072Z,55.80
2022-08-18T04:47:54.415Z,56.00
2022-08-18T04:50:21.401Z,56.30
2022-08-18T04:53:13.368Z,56.40
2022-08-18T04:55:52.385Z,56.40
2022-08-18T04:58:20.635Z,57.20
2022-08-18T05:01:03.821Z,59.80
2022-08-18T05:03:37.979Z,59.80
2022-08-18T05:06:17.756Z,59.90
2022-08-18T05:08:51.418Z,59.90
2022-08-18T05:11:18.118Z,59.20
2022-08-18T05:13:44.824Z,59.20
2022-08-18T05:16:24.645Z,58.70
2022-08-18T05:19:03.050Z,58.00
2022-08-18T05:21:33.765Z,58.30
2022-08-18T05:24:12.385Z,57.60
2022-08-18T05:26:48.421Z,57.30
2022-08-18T05:29:22.394Z,57.90
2022-08-18T05:31:52.490Z,58.60
2022-08-18T05:34:28.429Z,58.50
2022-08-18T05:37:11.430Z,59.70
2022-08-18T05:39:53.695Z,59.60
2022-08-18T05:42:29.396Z,58.10
2022-08-18T05:44:56.529Z,57.80
2022-08-18T05:47:39.490Z,59.60
2022-08-18T05:50:10.501Z,58.40
2022-08-18T05:52:45.403Z,58.70
2022-08-18T05:55:45.922Z,58.80
2022-08-18T05:58:24.393Z,58.40
2022-08-18T06:01:08.890Z,58.20
2022-08-18T06:03:55.427Z,59.30
2022-08-18T06:06:32.436Z,59.40
2022-08-18T06:09:03.657Z,59.60
2022-08-18T06:11:30.454Z,59.20
2022-08-18T06:14:03.435Z,58.50
2022-08-18T06:16:45.428Z,58.30
2022-08-18T06:19:39.046Z,57.90
2022-08-18T06:22:52.523Z,57.40
2022-08-18T06:26:00.439Z,58.30
2022-08-18T06:28:55.418Z,58.10
2022-08-18T06:31:48.343Z,57.70
2022-08-18T06:34:32.585Z,57.30
2022-08-18T06:37:17.426Z,57.30
2022-08-18T06:39:51.755Z,57.60
2022-08-18T06:42:32.440Z,57.20
2022-08-18T06:45:03.443Z,57.90
2022-08-18T06:48:17.446Z,57.70
2022-08-18T06:50:57.553Z,57.00
2022-08-18T06:54:11.448Z,57.00
2022-08-18T06:56:41.216Z,57.30
2022-08-18T06:59:31.507Z,58.90
2022-08-18T07:02:10.593Z,59.10
2022-08-18T07:05:04.477Z,60.90
2022-08-18T07:07:42.105Z,59.10
2022-08-18T07:10:21.449Z,58.50
2022-08-18T07:12:48.162Z,58.60
2022-08-18T07:15:31.467Z,57.70
2022-08-18T07:18:06.392Z,61.10
2022-08-18T07:20:52.467Z,61.70
2022-08-18T07:23:29.452Z,61.10
2022-08-18T07:26:01.006Z,57.80
2022-08-18T07:28:50.454Z,57.00
2022-08-18T07:31:20.200Z,57.30
2022-08-18T07:34:03.484Z,58.20
2022-08-18T07:36:35.480Z,60.90
2022-08-18T07:39:16.848Z,59.70
2022-08-18T07:41:52.364Z,61.80
2022-08-18T07:44:35.529Z,60.10
2022-08-18T07:47:18.505Z,59.40
2022-08-18T07:50:15.620Z,61.50
2022-08-18T07:52:57.482Z,62.90
2022-08-18T07:55:37.470Z,65.70
2022-08-18T07:58:10.005Z,65.90
2022-08-18T08:00:59.124Z,63.90
2022-08-18T08:03:38.284Z,65.00
2022-08-18T08:06:32.514Z,64.90
2022-08-18T08:09:18.883Z,64.10
2022-08-18T08:12:08.490Z,64.20
2022-08-18T08:14:42.501Z,65.10
2022-08-18T08:17:30.509Z,62.60
2022-08-18T08:20:15.495Z,64.30
2022-08-18T08:23:00.107Z,64.30
2022-08-18T08:25:52.870Z,64.20
2022-08-18T08:28:38.475Z,62.50
2022-08-18T08:31:38.724Z,62.90
2022-08-18T08:34:27.479Z,62.40
2022-08-18T08:37:08.523Z,62.80
2022-08-18T08:40:01.575Z,62.50
2022-08-18T08:42:40.214Z,63.40
2022-08-18T08:45:20.505Z,63.40
2022-08-18T08:47:50.302Z,62.50
2022-08-18T08:50:29.496Z,62.80
2022-08-18T08:53:26.569Z,62.60
2022-08-18T08:56:02.671Z,62.10
2022-08-18T08:58:57.518Z,62.30
2022-08-18T09:01:36.546Z,62.60
2022-08-18T09:04:34.760Z,62.60
2022-08-18T09:07:38.301Z,63.60
2022-08-18T09:10:23.526Z,64.40
2022-08-18T09:13:16.513Z,63.60
2022-08-18T09:16:34.541Z,62.50
2022-08-18T09:19:29.130Z,60.90
2022-08-18T09:22:30.532Z,63.40
2022-08-18T09:25:05.356Z,63.90
2022-08-18T09:28:09.395Z,63.70
2022-08-18T09:31:14.526Z,64.30
2022-08-18T09:34:07.189Z,63.90
2022-08-18T09:37:08.536Z,63.80
2022-08-18T09:40:10.852Z,63.70
2022-08-18T09:42:48.608Z,64.50
2022-08-18T09:45:39.541Z,64.20
2022-08-18T09:48:13.901Z,64.20
2022-08-18T09:50:58.548Z,64.20
2022-08-18T09:53:54.134Z,63.50
2022-08-18T09:56:58.543Z,62.90
2022-08-18T09:59:35.035Z,62.30
2022-08-18T10:02:28.083Z,61.90
2022-08-18T10:05:26.539Z,62.10
2022-08-18T10:08:06.749Z,62.20
2022-08-18T10:11:02.356Z,61.20
2022-08-18T10:13:59.328Z,61.10
2022-08-18T10:20:25.803Z,57.90
2022-08-18T10:23:02.971Z,58.90
2022-08-18T10:25:54.566Z,57.20
2022-08-18T10:28:58.568Z,55.70
2022-08-18T10:31:27.381Z,54.90
2022-08-18T10:34:17.163Z,55.40
2022-08-18T10:37:06.464Z,54.40
2022-08-18T10:39:45.649Z,54.10
2022-08-18T10:42:54.907Z,54.70
2022-08-18T10:45:41.567Z,55.10
2022-08-18T10:48:29.295Z,55.90
2022-08-18T10:54:35.583Z,55.30
2022-08-18T10:57:47.599Z,55.70
2022-08-18T11:00:19.820Z,54.50
2022-08-18T11:03:50.169Z,54.70
2022-08-18T11:06:18.072Z,54.60
2022-08-18T11:08:58.585Z,54.70
2022-08-18T11:11:42.098Z,55.00
2022-08-18T11:14:41.190Z,55.30
2022-08-18T11:17:45.593Z,54.90
2022-08-18T11:20:23.614Z,54.40
2022-08-18T11:23:03.593Z,54.20
2022-08-18T11:25:32.123Z,53.80
2022-08-18T11:28:07.609Z,53.50
2022-08-18T11:30:37.426Z,53.50
2022-08-18T11:33:07.145Z,53.30
2022-08-18T11:35:55.611Z,52.80
2022-08-18T11:41:24.261Z,52.80
2022-08-18T11:44:04.049Z,52.70
2022-08-18T11:46:42.980Z,52.60
2022-08-18T11:49:51.620Z,52.50
2022-08-18T11:52:36.616Z,52.20
2022-08-18T11:55:16.938Z,52.70
2022-08-18T11:58:00.637Z,52.10
2022-08-18T12:03:50.608Z,52.30
2022-08-18T12:06:32.715Z,52.20
2022-08-18T12:10:07.671Z,52.20
2022-08-18T12:12:28.632Z,52.40
2022-08-18T12:17:54.071Z,52.40
2022-08-18T12:20:22.573Z,52.40
2022-08-18T12:22:56.797Z,52.40
2022-08-18T12:25:30.630Z,52.20
2022-08-18T12:28:04.674Z,52.00
2022-08-18T12:30:37.911Z,51.90
2022-08-18T12:33:15.856Z,52.00
2022-08-18T12:35:44.702Z,52.10
2022-08-18T12:38:19.658Z,52.10
2022-08-18T12:40:52.634Z,52.30
2022-08-18T12:43:25.663Z,52.20
2022-08-18T12:46:06.658Z,52.30
2022-08-18T12:48:45.634Z,52.40
2022-08-18T12:51:13.490Z,52.40
2022-08-18T12:53:58.216Z,52.70
2022-08-18T12:56:30.413Z,52.70
2022-08-18T12:59:08.658Z,52.80
2022-08-18T13:01:36.990Z,52.80
2022-08-18T13:04:11.061Z,52.90
2022-08-18T13:07:00.140Z,53.00
2022-08-18T13:09:35.800Z,52.90
2022-08-18T13:12:25.687Z,52.90
2022-08-18T13:15:02.905Z,53.10
2022-08-18T13:17:33.774Z,53.10
2022-08-18T13:20:19.656Z,53.00
2022-08-18T13:22:48.009Z,53.10
2022-08-18T13:25:32.199Z,53.00
2022-08-18T13:28:00.433Z,53.10
2022-08-18T13:30:35.781Z,53.10
2022-08-18T13:33:34.875Z,53.20
2022-08-18T13:36:03.722Z,52.90
2022-08-18T13:38:30.457Z,53.00
2022-08-18T13:41:06.694Z,52.90
2022-08-18T13:43:38.041Z,52.60
2022-08-18T13:46:13.691Z,52.60
2022-08-18T13:48:43.087Z,52.50
2022-08-18T13:51:24.694Z,52.10
2022-08-18T13:54:17.391Z,52.00
2022-08-18T13:56:51.260Z,51.80
2022-08-18T13:59:21.550Z,51.80
2022-08-18T14:01:55.765Z,51.70
2022-08-18T14:04:29.696Z,51.30
2022-08-18T14:06:59.868Z,50.90
2022-08-18T14:09:37.798Z,50.90
2022-08-18T14:12:22.689Z,50.70
2022-08-18T14:14:58.733Z,50.10
2022-08-18T14:17:26.703Z,49.80
2022-08-18T14:20:22.074Z,49.70
2022-08-18T14:23:24.041Z,50.40
2022-08-18T14:26:19.680Z,49.50
2022-08-18T14:28:53.711Z,49.60
2022-08-18T14:31:20.675Z,49.20
2022-08-18T14:33:53.551Z,49.00
2022-08-18T14:36:30.162Z,48.20
2022-08-18T14:39:05.710Z,48.50
2022-08-18T14:41:54.527Z,48.60
2022-08-18T14:44:23.590Z,48.50
2022-08-18T14:46:57.715Z,48.40
2022-08-18T14:49:29.163Z,47.80
2022-08-18T14:52:04.711Z,47.80
2022-08-18T14:54:46.334Z,47.70
2022-08-18T14:57:24.710Z,48.00
2022-08-18T14:59:51.534Z,47.90
2022-08-18T15:02:25.695Z,47.70
2022-08-18T15:04:58.890Z,47.60
2022-08-18T15:07:33.787Z,47.90
2022-08-18T15:10:15.127Z,47.70
2022-08-18T15:12:50.773Z,47.80
2022-08-18T15:15:18.535Z,47.90
2022-08-18T15:17:53.227Z,47.80
2022-08-18T15:20:29.852Z,47.50
2022-08-18T15:23:24.845Z,47.60
2022-08-18T15:26:02.930Z,47.50
2022-08-18T15:28:32.028Z,47.50
2022-08-18T15:33:58.766Z,47.30
2022-08-18T15:36:34.713Z,47.00
2022-08-18T15:39:04.700Z,46.10
2022-08-18T15:41:48.840Z,46.50
2022-08-18T15:44:20.364Z,46.40
2022-08-18T15:46:58.733Z,45.90
2022-08-18T15:49:25.789Z,45.60
2022-08-18T15:52:00.788Z,45.90
2022-08-18T15:54:33.856Z,45.90
2022-08-18T15:57:06.740Z,45.90
2022-08-18T15:59:39.732Z,45.40
2022-08-18T16:02:18.181Z,45.70
2022-08-18T16:04:46.094Z,46.20
2022-08-18T16:07:32.416Z,45.80
2022-08-18T16:10:15.827Z,45.10
2022-08-18T16:12:45.920Z,45.00
2022-08-18T16:15:21.888Z,45.40
2022-08-18T16:17:50.901Z,45.70
2022-08-18T16:20:27.764Z,45.30
2022-08-18T16:22:54.658Z,45.20
2022-08-18T16:25:21.594Z,45.60
2022-08-18T16:27:54.776Z,45.80
2022-08-18T16:30:24.385Z,45.70
2022-08-18T16:32:58.762Z,45.60
2022-08-18T16:35:33.956Z,45.70
2022-08-18T16:38:14.804Z,45.70
2022-08-18T16:40:41.834Z,45.80
2022-08-18T16:43:15.776Z,45.90
2022-08-18T16:45:42.848Z,45.80
2022-08-18T16:48:14.239Z,46.00
2022-08-18T16:50:51.787Z,46.10
2022-08-18T16:53:24.793Z,46.10
2022-08-18T16:55:57.793Z,46.00
2022-08-18T16:58:49.798Z,46.00
2022-08-18T17:01:48.713Z,46.00
2022-08-18T17:04:26.801Z,46.10
2022-08-18T17:07:04.330Z,46.20
2022-08-18T17:09:39.814Z,46.40
2022-08-18T17:12:06.759Z,46.40
2022-08-18T17:14:40.794Z,46.60
2022-08-18T17:17:07.673Z,46.70
2022-08-18T17:19:42.808Z,46.60
2022-08-18T17:22:09.591Z,46.50
2022-08-18T17:24:37.605Z,46.50
2022-08-18T17:27:27.011Z,46.50
2022-08-18T17:30:18.803Z,46.50
2022-08-18T17:32:57.402Z,46.80
2022-08-18T17:35:35.810Z,46.80
2022-08-18T17:38:25.809Z,47.10
2022-08-18T17:41:03.344Z,47.40
2022-08-18T17:46:32.913Z,47.50
2022-08-18T17:49:22.426Z,47.60
2022-08-18T17:51:59.862Z,48.30
2022-08-18T17:54:43.906Z,47.70
2022-08-18T17:57:33.057Z,47.90
2022-08-18T18:00:18.994Z,48.40
2022-08-18T18:02:46.803Z,48.40
2022-08-18T18:05:23.945Z,48.50
2022-08-18T18:07:56.831Z,48.70
2022-08-18T18:10:47.028Z,48.70
2022-08-18T18:13:35.841Z,48.80
2022-08-18T18:16:28.770Z,48.90
2022-08-18T18:19:04.890Z,48.70
2022-08-18T18:21:53.431Z,48.70
2022-08-18T18:24:38.945Z,48.90
2022-08-18T18:27:26.959Z,49.30
2022-08-18T18:30:03.848Z,49.10
2022-08-18T18:32:59.124Z,49.20
2022-08-18T18:35:37.845Z,49.20
2022-08-18T18:38:37.831Z,49.20
2022-08-18T18:41:12.405Z,49.20
2022-08-18T18:43:52.854Z,49.30
2022-08-18T18:46:38.827Z,49.30
2022-08-18T18:49:24.944Z,49.50
2022-08-18T18:52:00.848Z,49.40
2022-08-18T18:55:02.388Z,49.50
2022-08-18T18:57:56.852Z,49.80
2022-08-18T19:00:53.561Z,49.60
2022-08-18T19:03:36.859Z,49.20
2022-08-18T19:06:15.943Z,49.10
2022-08-18T19:09:00.876Z,49.50
2022-08-18T19:11:59.878Z,49.00
2022-08-18T19:14:42.873Z,49.10
2022-08-18T19:17:48.965Z,49.50
2022-08-18T19:20:24.612Z,49.40
2022-08-18T19:23:05.873Z,49.50
2022-08-18T19:25:48.309Z,50.10
2022-08-18T19:29:12.754Z,50.50
2022-08-18T19:31:29.108Z,50.50
2022-08-18T19:34:08.443Z,50.50
2022-08-18T19:37:18.285Z,51.30
2022-08-18T19:40:24.905Z,50.50
2022-08-18T19:43:06.261Z,50.20
2022-08-18T19:46:16.863Z,50.40
2022-08-18T19:48:58.705Z,51.30
2022-08-18T19:51:48.867Z,51.40
2022-08-18T19:54:36.599Z,51.30
2022-08-18T19:57:55.873Z,51.50
2022-08-18T20:00:50.953Z,51.80
2022-08-18T20:03:18.487Z,51.80
2022-08-18T20:06:33.252Z,51.20
2022-08-18T20:09:15.944Z,51.70
2022-08-18T20:12:12.893Z,52.30
2022-08-18T20:14:48.903Z,53.30
2022-08-18T20:17:26.910Z,53.40
2022-08-18T20:20:01.025Z,53.50
2022-08-18T20:22:37.882Z,53.10
2022-08-18T20:25:23.939Z,53.20
2022-08-18T20:28:05.907Z,53.10
2022-08-18T20:30:37.342Z,52.80
2022-08-18T20:33:25.708Z,53.10
2022-08-18T20:35:58.567Z,53.10
2022-08-18T20:38:56.917Z,52.30
2022-08-18T20:41:23.575Z,52.00
2022-08-18T20:44:28.617Z,52.00
2022-08-18T20:47:11.138Z,52.00
2022-08-18T20:50:12.915Z,52.00
2022-08-18T20:53:14.863Z,52.10
2022-08-18T20:56:31.696Z,52.90
2022-08-18T20:59:25.740Z,53.80
2022-08-18T21:02:02.971Z,53.40
2022-08-18T21:04:42.849Z,53.60
2022-08-18T21:07:35.900Z,53.80
2022-08-18T21:10:32.045Z,54.00
2022-08-18T21:13:15.917Z,53.40
2022-08-18T21:15:48.902Z,53.00
2022-08-18T21:18:34.924Z,52.80
2022-08-18T21:21:11.940Z,52.70
2022-08-18T21:23:47.012Z,52.90
2022-08-18T21:26:21.937Z,53.00
2022-08-18T21:29:07.933Z,53.00
2022-08-18T21:31:42.206Z,53.60
2022-08-18T21:34:45.042Z,53.40
2022-08-18T21:37:14.543Z,52.70
2022-08-18T21:40:04.029Z,52.90
2022-08-18T21:42:51.541Z,53.40
2022-08-18T21:45:28.939Z,53.60
2022-08-18T21:48:08.930Z,53.50
2022-08-18T21:50:41.946Z,53.50
2022-08-18T21:53:24.959Z,53.90
2022-08-18T21:56:02.931Z,54.40
2022-08-18T21:58:56.949Z,54.30
2022-08-18T22:01:35.936Z,53.70
2022-08-18T22:04:25.095Z,54.20
2022-08-18T22:07:03.948Z,54.40
2022-08-18T22:10:19.789Z,54.20
2022-08-18T22:13:22.955Z,54.30
2022-08-18T22:15:56.937Z,54.10
2022-08-18T22:18:43.960Z,54.50
2022-08-18T22:21:32.141Z,54.80
2022-08-18T22:24:24.968Z,56.00
2022-08-18T22:27:00.701Z,55.40
2022-08-18T22:29:58.959Z,55.30
2022-08-18T22:32:32.973Z,55.00
2022-08-18T22:34:59.694Z,54.80
2022-08-18T22:37:36.959Z,55.20
2022-08-18T22:40:17.013Z,55.30
2022-08-18T22:42:49.060Z,55.10
2022-08-18T22:45:15.923Z,54.60
2022-08-18T22:47:48.980Z,54.30
2022-08-18T22:50:15.711Z,54.10
2022-08-18T22:52:47.229Z,54.40
2022-08-18T22:55:24.314Z,54.80
2022-08-18T22:57:55.653Z,54.60
2022-08-18T23:00:29.978Z,54.50
2022-08-18T23:03:06.463Z,54.60
2022-08-18T23:05:39.985Z,54.60
2022-08-18T23:08:07.605Z,54.30
2022-08-18T23:10:43.986Z,54.80
2022-08-18T23:13:17.985Z,54.30
2022-08-18T23:15:54.996Z,54.00
2022-08-18T23:18:49.980Z,54.80
2022-08-18T23:21:34.593Z,55.40
2022-08-18T23:24:12.987Z,55.60
2022-08-18T23:26:40.417Z,55.30
2022-08-18T23:29:11.384Z,55.40
2022-08-18T23:31:46.979Z,55.80
2022-08-18T23:34:17.437Z,55.80
2022-08-18T23:36:53.049Z,56.40
2022-08-18T23:39:28.121Z,56.00
2022-08-18T23:42:02.002Z,56.30
2022-08-18T23:44:29.060Z,56.40
2022-08-18T23:47:03.996Z,56.70
2022-08-18T23:49:37.028Z,56.30
2022-08-18T23:52:04.091Z,57.20
2022-08-18T23:54:41.027Z,56.50
2022-08-18T23:57:14.021Z,57.10
2022-08-18T23:59:47.004Z,57.20
